• Join FlightAware (Why Join?)
  • Login
  • US Flag 
09:11AM EDT


 

Airport Tracker/Info


-or-


 

Live Flight TrackerFlight Track Log ✈ EGF3675 ✈ 15-Apr-2013 ✈ KLAX - KDEN

Flight Track Log - Related Links

Times and Time Zones

All times are in EDT time to prevent confusion due to time zone crossing. See the EGF3675 flight status page for this flight to view local times or setup timezone preferences in your user account.

Time Position Orientation Groundspeed Altitude Reporting Facility
EDT Latitude Longitude Course Direction KTS MPH feet Rate Location/Type
08:26PM 33.9347 -118.4411 59° Northeast 171 197 1,500  Level Los Angeles Center
08:27PM 34.0559 -118.1911 51° Northeast  Level FlightAware Approximate
08:27PM 33.9153 -118.5267 255° West 237 273 3,600  Level Los Angeles Center
08:28PM 34.1375 -118.0583 59° Northeast  Level FlightAware Approximate
08:28PM 33.8586 -118.5658 210° Southwest 278 320 6,600  Level Los Angeles Center
08:29PM 34.2085 -117.9164 59° Northeast  Level FlightAware Approximate
08:29PM 33.8408 -118.4717 103° East 316 364 9,200  Level Los Angeles Center
08:30PM 34.2833 -117.7924 90° East  Level FlightAware Approximate
08:30PM 33.9039 -118.4314 28° Northeast 287 330 11,300  Level Los Angeles Center
08:31PM 34.3565 -117.6537 59° Northeast  Level FlightAware Approximate
08:31PM 33.9742 -118.3611 40° Northeast 340 391 12,700  Level Los Angeles Center
08:32PM 34.0369 -118.2506 56° Northeast 385 443 13,900 1,380 Climbing Los Angeles Center
08:33PM 34.1039 -118.1325 56° Northeast 417 480 15,600 1,740 Climbing Los Angeles Center
08:34PM 34.1872 -117.9850 56° Northeast 440 506 17,500 1,680 Climbing Los Angeles Center
08:35PM 34.2656 -117.8658 51° Northeast 452 520 19,100 1,320 Climbing Los Angeles Center
08:36PM 34.3317 -117.7717 50° Northeast 457 526 20,300 1,500 Climbing Los Angeles Center
08:37PM 34.4364 -117.6197 50° Northeast 466 536 22,200 1,320 Climbing Los Angeles Center
08:38PM 34.5197 -117.4992 50° Northeast 469 540 23,100 840 Climbing Los Angeles Center
08:39PM 34.6056 -117.3728 50° Northeast 485 558 24,000 900 Climbing Los Angeles Center
08:40PM 34.6928 -117.2464 50° Northeast 492 566 25,000 840 Climbing Los Angeles Center
08:41PM 34.7633 -117.1428 50° Northeast 499 574 25,800 1,020 Climbing Los Angeles Center
08:42PM 34.8864 -116.9619 50° Northeast 500 575 27,200 1,140 Climbing Los Angeles Center
08:43PM 34.9747 -116.8308 51° Northeast 502 578 28,200 960 Climbing Los Angeles Center
08:44PM 35.0639 -116.6992 50° Northeast 505 581 29,200 960 Climbing Los Angeles Center
08:45PM 35.1544 -116.5650 50° Northeast 509 586 30,200 960 Climbing Los Angeles Center
08:46PM 35.2450 -116.4306 50° Northeast 513 590 31,200 1,020 Climbing Los Angeles Center
08:47PM 35.3519 -116.2689 51° Northeast 510 587 32,400 1,020 Climbing Los Angeles Center
08:48PM 35.4411 -116.1325 51° Northeast 514 592 33,400 960 Climbing Los Angeles Center
08:49PM 35.5319 -115.9997 50° Northeast 510 587 34,400 960 Climbing Los Angeles Center
08:50PM 35.6269 -115.8539 51° Northeast 501 577 35,500 960 Climbing Los Angeles Center
08:51PM 35.7133 -115.7231 51° Northeast 496 571 36,500 720 Climbing Los Angeles Center
08:52PM 35.7986 -115.5925 51° Northeast 492 566 37,000 240 Climbing Los Angeles Center
08:54PM 35.8850 -115.4600 51° Northeast 497 572 37,100  Climbing Los Angeles Center
08:55PM 35.9733 -115.3239 51° Northeast 509 586 37,000 -60 Descending Los Angeles Center
08:56PM 36.0747 -115.1589 53° Northeast 509 586 37,000  Level Los Angeles Center
08:57PM 36.1314 -114.9908 67° East 530 610 37,000  Level Los Angeles Center
08:58PM 36.1828 -114.8200 70° East 533 613 37,100  Climbing Los Angeles Center
08:59PM 36.2344 -114.6492 69° East 532 612 37,000 -60 Descending Los Angeles Center
09:00PM 36.2883 -114.4781 69° East 534 615 37,000  Level Los Angeles Center
09:01PM 36.3511 -114.2703 69° East 536 617 37,000  Level Los Angeles Center
09:02PM 36.4125 -114.1011 66° East 538 619 37,000  Level Los Angeles Center
09:03PM 36.4722 -113.9311 66° East 539 620 37,000  Level Los Angeles Center
09:04PM 36.5292 -113.7681 66° East 540 621 37,000  Level Los Angeles Center
09:05PM 36.5881 -113.5978 67° East 539 620 37,000  Level Los Angeles Center
09:06PM 36.6581 -113.3925 67° East 539 620 37,000  Level Los Angeles Center
09:07PM 36.7167 -113.2206 67° East 541 623 37,000  Level Los Angeles Center
09:08PM 36.7750 -113.0494 67° East 540 621 37,000  Level Los Angeles Center
09:09PM 36.8331 -112.8775 67° East 540 621 37,000  Level Los Angeles Center
09:10PM 36.8897 -112.7039 68° East 543 625 37,000  Level Los Angeles Center
09:11PM 36.9483 -112.5306 67° East 545 627 37,000  Level Los Angeles Center
09:12PM 37.0178 -112.3225 67° East 545 627 37,000  Level Los Angeles Center
09:13PM 37.0744 -112.1483 68° East 544 626 37,000  Level Los Angeles Center
09:14PM 37.1092 -112.0444 67° East 544 626 37,000  Level Denver Center
09:14PM 37.1311 -111.9747 68° East 543 625 37,000  Level Los Angeles Center
09:15PM 37.1775 -111.8375 67° East 540 621 37,000  Level Denver Center
09:16PM 37.2314 -111.6639 69° East 539 620 37,000  Level Denver Center
09:17PM 37.2872 -111.4906 68° East 538 619 37,000  Level Denver Center
09:18PM 37.3436 -111.3158 68° East 542 624 37,000  Level Denver Center
09:19PM 37.4000 -111.1408 68° East 543 625 37,000  Level Denver Center
09:20PM 37.4525 -110.9667 69° East 536 617 37,000  Level Denver Center
09:21PM 37.5083 -110.7903 68° East 544 626 37,000  Level Denver Center
09:22PM 37.5750 -110.5797 68° East 542 624 37,000  Level Denver Center
09:23PM 37.6253 -110.4161 69° East 544 626 37,000  Level Denver Center
09:24PM 37.6864 -110.2181 69° East 541 623 37,000  Level Denver Center
09:25PM 37.7378 -110.0483 69° East 540 621 37,000  Level Denver Center
09:26PM 37.7892 -109.8772 69° East 543 625 37,000  Level Denver Center
09:27PM 37.8494 -109.6781 69° East 544 626 37,000  Level Denver Center
09:28PM 37.9008 -109.5064 69° East 544 626 37,000  Level Denver Center
09:29PM 37.9603 -109.3089 69° East 538 619 37,000  Level Denver Center
09:30PM 38.0108 -109.1344 70° East 547 629 37,000  Level Denver Center
09:31PM 38.0625 -108.9592 69° East 541 623 37,000  Level Denver Center
09:32PM 38.1214 -108.7553 70° East 547 629 37,000  Level Denver Center
09:33PM 38.1719 -108.5825 70° East 548 631 37,000  Level Denver Center
09:34PM 38.2211 -108.4119 70° East 541 623 37,000  Level Denver Center
09:35PM 38.2772 -108.2139 70° East 535 616 37,000  Level Denver Center
09:36PM 38.3256 -108.0472 70° East 528 608 37,000  Level Denver Center
09:37PM 38.3786 -107.8556 70° East 519 597 37,000  Level Denver Center
09:39PM 38.4322 -107.6633 70° East 518 596 37,000  Level Denver Center
09:40PM 38.5042 -107.4786 63° Northeast 522 601 37,000  Level Denver Center
09:41PM 38.5731 -107.3256 60° Northeast 521 600 37,000  Level Denver Center
09:42PM 38.6464 -107.1617 60° Northeast 515 593 37,000 -540 Level Denver Center
09:43PM 38.7172 -107.0008 61° Northeast 518 596 36,000 -1,500 Descending Denver Center
09:44PM 38.7892 -106.8369 61° Northeast 529 609 34,000 -1,980 Descending Denver Center
09:45PM 38.8617 -106.6731 60° Northeast 528 608 32,000 -2,040 Descending Denver Center
09:46PM 38.9419 -106.4989 59° Northeast 531 611 29,900 -2,160 Descending Denver Center
09:47PM 39.0281 -106.3131 59° Northeast 541 623 27,600 -1,620 Descending Denver Center
09:48PM 39.1028 -106.1494 59° Northeast 533 613 26,700 -1,380 Descending Denver Center
09:49PM 39.1672 -106.0000 61° Northeast 496 571 24,900 -1,620 Descending Denver Center
09:50PM 39.2317 -105.8542 60° Northeast 469 540 23,400 -1,560 Descending Denver Center
09:51PM 39.2928 -105.7169 60° Northeast 441 507 21,800 -1,620 Descending Denver Center
09:52PM 39.3528 -105.5817 60° Northeast 433 498 20,200 -1,920 Descending Denver Center
09:53PM 39.3969 -105.4397 68° East 383 441 17,900 -1,620 Descending Denver Center
09:54PM 39.4025 -105.3117 87° East 355 409 17,000 -900 Descending Denver Center
09:55PM 39.4083 -105.2000 86° East 316 364 16,100 -1,080 Descending Denver Center
09:56PM 39.4019 -105.0836 94° East 304 350 14,800 -1,200 Descending Denver Center
09:57PM 39.3944 -104.9867 96° East 278 320 13,700 -1,020 Descending Denver Center
09:58PM 39.4017 -104.8978 84° East 256 295 12,800 -1,080 Descending Denver Center
09:59PM 39.4283 -104.8067 69° East 250 288 11,500 -1,140 Descending Denver Center
10:00PM 39.4447 -104.7278 75° East 229 264 10,500 -780 Descending Denver Center
10:01PM 39.4989 -104.6956 25° Northeast 214 246 10,000 -300 Descending Denver Center
10:02PM 39.5631 -104.6908 North 212 244 10,000  Level Denver Center
10:03PM 39.6242 -104.6908 360° North 218 251 10,000  Level Denver Center